Time;durP1;ratioP1;P1;durP2;ratioP2;P2;SDS_P1;SDS_P2;PMS_P1;PMS_P2;Temp;Humidity;BMP_temperature;BMP_pressure;BME280_temperature;BME280_humidity;BME280_pressure;Samples;Min_cycle;Max_cycle;Signal;HPM_P1;HPM_P2
2022/01/29 00:01:35;;;;;;;146.27;130.30;;;7.70;99.20;;;;;;5093330;28;19968;-81
2022/01/29 00:04:03;;;;;;;145.02;127.78;;;7.70;99.30;;;;;;5075917;28;20055;-81
2022/01/29 00:06:29;;;;;;;;;;;7.70;99.20;;;;;;5093264;28;20128;-81
2022/01/29 00:08:58;;;;;;;;;;;7.70;99.20;;;;;;5076436;28;20031;-81
2022/01/29 00:11:29;;;;;;;140.70;125.22;;;7.70;99.30;;;;;;5127383;27;19924;-81
2022/01/29 00:13:56;;;;;;;150.55;134.32;;;7.80;99.40;;;;;;5096714;28;20508;-82
2022/01/29 00:16:23;;;;;;;;;;;7.80;99.40;;;;;;5107725;28;20054;-81
2022/01/29 00:18:50;;;;;;;147.05;129.38;;;7.80;99.50;;;;;;5097749;28;20596;-81
2022/01/29 00:21:18;;;;;;;145.52;129.27;;;7.80;99.60;;;;;;5114757;28;20056;-81
2022/01/29 00:23:44;;;;;;;156.73;139.73;;;7.80;99.60;;;;;;5084147;28;20048;-80
2022/01/29 00:26:13;;;;;;;146.70;131.07;;;7.70;99.70;;;;;;5078127;28;20052;-81
2022/01/29 00:28:40;;;;;;;148.38;131.27;;;7.70;99.70;;;;;;5095275;28;20086;-81
2022/01/29 00:31:10;;;;;;;148.80;132.50;;;7.70;99.80;;;;;;5095194;28;20053;-81
2022/01/29 00:33:38;;;;;;;156.63;139.90;;;7.70;99.90;;;;;;5096007;28;20059;-81
2022/01/29 00:36:05;;;;;;;152.82;136.35;;;7.70;99.90;;;;;;5078096;28;20055;-81
2022/01/29 00:38:33;;;;;;;158.55;141.15;;;7.70;99.90;;;;;;5077958;28;20048;-81
2022/01/29 00:41:00;;;;;;;150.30;134.15;;;7.70;99.90;;;;;;5066267;28;20049;-81
2022/01/29 00:43:29;;;;;;;157.52;140.52;;;7.70;99.90;;;;;;5095376;28;20139;-81
2022/01/29 00:45:56;;;;;;;152.05;132.27;;;7.70;99.90;;;;;;5078389;28;20045;-81
2022/01/29 00:48:23;;;;;;;152.80;136.10;;;7.70;99.90;;;;;;5078549;28;20139;-81
2022/01/29 00:50:51;;;;;;;144.60;129.02;;;7.70;99.90;;;;;;5095275;28;20056;-80
2022/01/29 00:53:18;;;;;;;153.32;136.80;;;7.70;99.90;;;;;;5095036;28;20056;-80
2022/01/29 00:55:45;;;;;;;149.50;132.90;;;7.70;99.90;;;;;;5075173;28;20076;-81
2022/01/29 00:58:12;;;;;;;;;;;7.60;99.90;;;;;;5078877;28;20048;-81
2022/01/29 01:00:40;;;;;;;;;;;7.70;99.90;;;;;;5096280;28;19924;-81
2022/01/29 01:03:07;;;;;;;150.90;134.30;;;7.70;99.90;;;;;;5130235;27;19932;-81
2022/01/29 01:05:34;;;;;;;146.02;129.98;;;7.70;99.90;;;;;;5094869;28;20501;-81
2022/01/29 01:08:01;;;;;;;145.18;129.43;;;7.60;99.90;;;;;;5094266;28;20850;-82
2022/01/29 01:10:28;;;;;;;151.95;135.77;;;7.70;99.90;;;;;;5095430;28;20052;-81
2022/01/29 01:12:55;;;;;;;;;;;7.70;99.90;;;;;;5094879;28;20055;-81
2022/01/29 01:15:22;;;;;;;149.57;133.00;;;7.70;99.90;;;;;;5080497;28;19967;-81
2022/01/29 01:17:50;;;;;;;148.82;132.65;;;7.60;99.90;;;;;;5094265;28;20053;-82
2022/01/29 01:20:17;;;;;;;145.38;130.07;;;7.70;99.90;;;;;;5094222;28;20048;-81
2022/01/29 01:22:44;;;;;;;;;;;7.70;99.90;;;;;;5094763;28;20147;-82
2022/01/29 01:25:11;;;;;;;142.82;127.13;;;7.70;99.90;;;;;;5068924;28;19928;-81
2022/01/29 01:27:38;;;;;;;;;;;7.70;99.90;;;;;;5094932;28;20057;-82
2022/01/29 01:30:05;;;;;;;;;;;7.70;99.90;;;;;;5112978;28;20015;-82
2022/01/29 01:32:33;;;;;;;146.95;131.43;;;7.70;99.90;;;;;;5090718;28;20396;-81
2022/01/29 01:35:10;;;;;;;148.00;132.05;;;7.70;99.90;;;;;;5093771;28;20150;-81
2022/01/29 01:37:43;;;;;;;;;;;7.70;99.90;;;;;;5094447;28;20075;-82
2022/01/29 01:40:12;;;;;;;151.68;135.43;;;7.70;99.90;;;;;;5111212;28;20457;-81
2022/01/29 01:42:39;;;;;;;148.35;132.88;;;7.70;99.90;;;;;;5094829;28;20079;-81
2022/01/29 01:45:07;;;;;;;144.07;128.50;;;7.70;99.90;;;;;;5094022;28;20063;-81
2022/01/29 01:47:34;;;;;;;147.95;132.35;;;7.80;99.90;;;;;;5077142;28;20076;-81
2022/01/29 01:50:03;;;;;;;147.43;131.85;;;7.80;99.90;;;;;;5076888;28;20143;-81
2022/01/29 01:52:30;;;;;;;146.00;130.45;;;7.80;99.90;;;;;;5076997;28;20091;-81
2022/01/29 01:54:57;;;;;;;145.73;129.63;;;7.80;99.90;;;;;;5075728;28;20506;-81
2022/01/29 01:57:24;;;;;;;144.45;129.07;;;7.80;99.90;;;;;;5092029;28;20063;-82
2022/01/29 01:59:51;;;;;;;;;;;7.70;99.90;;;;;;5094415;28;20080;-82
2022/01/29 02:02:18;;;;;;;149.15;129.75;;;7.80;99.90;;;;;;5076499;28;19920;-82
2022/01/29 02:04:45;;;;;;;;;;;7.80;99.90;;;;;;5094302;28;20055;-81
2022/01/29 02:07:14;;;;;;;;;;;7.70;99.90;;;;;;5077400;28;19928;-82
2022/01/29 02:09:41;;;;;;;154.20;130.98;;;7.70;99.90;;;;;;5082690;28;20009;-81
2022/01/29 02:12:10;;;;;;;143.82;125.80;;;7.70;99.90;;;;;;5077268;28;20052;-81
2022/01/29 02:14:38;;;;;;;143.05;127.78;;;7.80;99.90;;;;;;5093643;28;20048;-82
2022/01/29 02:17:07;;;;;;;151.18;133.80;;;7.80;99.90;;;;;;5093910;28;20466;-81
2022/01/29 02:19:34;;;;;;;153.82;136.15;;;7.80;99.90;;;;;;5096157;28;20147;-81
2022/01/29 02:22:03;;;;;;;147.52;129.48;;;7.80;99.90;;;;;;5077054;28;20049;-81
2022/01/29 02:24:30;;;;;;;151.35;130.75;;;7.80;99.90;;;;;;5093527;28;20044;-81
2022/01/29 02:26:57;;;;;;;148.90;132.65;;;7.80;99.90;;;;;;5092149;28;20514;-81
2022/01/29 02:29:24;;;;;;;153.02;135.43;;;7.80;99.90;;;;;;5076289;28;20087;-81
2022/01/29 02:31:52;;;;;;;;;;;7.80;99.90;;;;;;5086996;28;20545;-81
2022/01/29 02:34:19;;;;;;;149.73;131.95;;;7.80;99.90;;;;;;5069594;28;19952;-81
2022/01/29 02:36:47;;;;;;;166.65;137.43;;;7.90;99.90;;;;;;5092392;28;20052;-81
2022/01/29 02:39:17;;;;;;;149.15;132.25;;;7.90;99.90;;;;;;5093800;28;20045;-81
2022/01/29 02:41:45;;;;;;;155.18;135.07;;;7.90;99.90;;;;;;5073909;28;20510;-81
2022/01/29 02:44:16;;;;;;;155.07;132.23;;;7.90;99.90;;;;;;5056748;28;20049;-82
2022/01/29 02:46:50;;;;;;;149.77;132.48;;;7.90;99.90;;;;;;5073812;28;20057;-81
2022/01/29 02:49:18;;;;;;;161.55;136.38;;;7.90;99.90;;;;;;5073540;28;20052;-82
2022/01/29 02:51:47;;;;;;;147.63;128.93;;;7.90;99.90;;;;;;5090023;28;20053;-82
2022/01/29 02:54:16;;;;;;;148.63;132.10;;;7.90;99.90;;;;;;5090365;28;20045;-82
2022/01/29 02:56:43;;;;;;;152.13;132.98;;;7.90;99.90;;;;;;5073430;28;20061;-81
2022/01/29 02:59:11;;;;;;;155.85;130.45;;;7.90;99.90;;;;;;5073163;28;20767;-82
2022/01/29 03:01:38;;;;;;;149.88;130.10;;;7.90;99.90;;;;;;5073129;28;20049;-81
2022/01/29 03:04:05;;;;;;;;;;;8.00;99.90;;;;;;5086623;28;20477;-82
2022/01/29 03:06:57;;;;;;;151.48;125.43;;;8.00;99.90;;;;;;5094111;28;19925;-82
2022/01/29 03:09:26;;;;;;;156.30;134.80;;;8.00;99.90;;;;;;5076605;28;20143;-81
2022/01/29 03:11:55;;;;;;;150.48;127.30;;;8.00;99.90;;;;;;5092978;28;20110;-81
2022/01/29 03:14:22;;;;;;;151.48;125.72;;;8.00;99.90;;;;;;5083712;28;20053;-81
2022/01/29 03:16:49;;;;;;;152.10;129.90;;;8.00;99.90;;;;;;5093174;28;20061;-81
2022/01/29 03:19:16;;;;;;;;;;;8.00;99.90;;;;;;5093888;28;20064;-82
2022/01/29 03:21:43;;;;;;;145.70;123.68;;;8.10;99.90;;;;;;5077173;28;19924;-82
2022/01/29 03:24:13;;;;;;;147.10;127.53;;;8.10;99.90;;;;;;5093470;28;20071;-82
2022/01/29 03:26:41;;;;;;;147.88;125.70;;;8.10;99.90;;;;;;5093304;28;20488;-80
2022/01/29 03:29:08;;;;;;;146.32;128.25;;;8.20;99.90;;;;;;5093412;28;20079;-81
2022/01/29 03:31:35;;;;;;;145.02;124.57;;;8.20;99.90;;;;;;5076561;28;20055;-82
2022/01/29 03:34:02;;;;;;;143.77;123.07;;;8.20;99.90;;;;;;5076212;28;20044;-81
2022/01/29 03:36:29;;;;;;;146.52;125.45;;;8.20;99.90;;;;;;5093008;28;20049;-81
2022/01/29 03:38:56;;;;;;;139.68;120.40;;;8.30;99.90;;;;;;5093097;28;20068;-81
2022/01/29 03:41:23;;;;;;;;;;;8.30;99.90;;;;;;5076985;28;20058;-81
2022/01/29 03:43:54;;;;;;;135.95;120.45;;;8.40;99.90;;;;;;5110350;28;19928;-81
2022/01/29 03:46:20;;;;;;;139.63;120.85;;;8.40;99.90;;;;;;5076520;28;20468;-81
2022/01/29 03:48:47;;;;;;;142.65;125.40;;;8.50;99.90;;;;;;5092571;28;20079;-81
2022/01/29 03:51:14;;;;;;;;;;;8.50;99.90;;;;;;5093390;28;20055;-81
2022/01/29 03:53:41;;;;;;;;;;;8.60;99.90;;;;;;5110446;28;19934;-82
2022/01/29 03:56:08;;;;;;;141.55;121.80;;;8.60;99.90;;;;;;5093495;28;19925;-82
2022/01/29 03:58:35;;;;;;;;;;;8.60;99.90;;;;;;5093151;28;20057;-81
2022/01/29 04:01:04;;;;;;;139.70;120.22;;;8.60;99.90;;;;;;5093199;28;19931;-81
2022/01/29 04:03:32;;;;;;;135.27;120.53;;;8.60;99.90;;;;;;5092868;28;20052;-82
2022/01/29 04:05:59;;;;;;;138.82;124.00;;;8.70;99.90;;;;;;5093050;28;20493;-81
2022/01/29 04:08:26;;;;;;;141.63;125.53;;;8.60;99.90;;;;;;5092774;28;20107;-81
2022/01/29 04:10:53;;;;;;;136.88;121.53;;;8.70;99.90;;;;;;5075860;28;20051;-81
2022/01/29 04:13:23;;;;;;;;;;;8.70;99.90;;;;;;5093221;28;20041;-82
2022/01/29 04:15:50;;;;;;;137.25;122.07;;;8.70;99.90;;;;;;5093046;28;19925;-81
2022/01/29 04:18:19;;;;;;;134.13;119.65;;;8.70;99.90;;;;;;5092633;28;20056;-81
2022/01/29 04:20:46;;;;;;;138.43;123.35;;;8.70;99.90;;;;;;5075834;28;20044;-82
2022/01/29 04:26:26;;;;;;;139.60;122.85;;;8.70;99.90;;;;;;5127440;27;19924;-81
2022/01/29 04:28:53;;;;;;;133.57;118.88;;;8.70;99.90;;;;;;5092444;28;20056;-81
2022/01/29 04:31:21;;;;;;;136.80;122.32;;;8.70;99.90;;;;;;5092537;28;20497;-81
2022/01/29 04:33:49;;;;;;;135.18;120.32;;;8.70;99.90;;;;;;5075607;28;20539;-81
2022/01/29 04:36:16;;;;;;;133.15;118.85;;;8.70;99.90;;;;;;5092342;28;20144;-82
2022/01/29 04:38:43;;;;;;;134.80;120.45;;;8.80;99.90;;;;;;5091930;28;20062;-82
2022/01/29 04:41:10;;;;;;;136.65;121.40;;;8.70;99.90;;;;;;5092738;28;20052;-81
2022/01/29 04:43:37;;;;;;;;;;;8.80;99.90;;;;;;5092703;28;20044;-80
2022/01/29 04:46:04;;;;;;;133.63;118.93;;;8.80;99.90;;;;;;5092592;28;20415;-81
2022/01/29 04:48:31;;;;;;;134.00;119.68;;;8.90;99.90;;;;;;5075173;28;20151;-81
2022/01/29 04:51:00;;;;;;;;;;;8.80;99.90;;;;;;5092985;28;20056;-81
2022/01/29 04:53:27;;;;;;;137.68;118.47;;;8.80;99.90;;;;;;5109436;28;19929;-81
2022/01/29 04:55:54;;;;;;;137.68;120.35;;;8.80;99.90;;;;;;5075149;28;20061;-81
2022/01/29 04:58:21;;;;;;;;;;;8.80;99.90;;;;;;5092560;28;20053;-82
2022/01/29 05:00:48;;;;;;;133.43;118.75;;;8.90;99.90;;;;;;5094685;28;19924;-81
2022/01/29 05:03:16;;;;;;;135.52;120.30;;;8.90;99.90;;;;;;5078713;28;20052;-82
2022/01/29 05:05:44;;;;;;;135.75;121.60;;;8.90;99.90;;;;;;5078597;28;20052;-81
2022/01/29 05:08:13;;;;;;;134.02;119.78;;;8.90;99.90;;;;;;5078518;28;20131;-81
2022/01/29 05:10:40;;;;;;;132.82;118.43;;;8.90;99.90;;;;;;5095504;28;20524;-81
2022/01/29 05:13:09;;;;;;;135.88;121.45;;;8.90;99.90;;;;;;5078185;28;20048;-81
2022/01/29 05:15:40;;;;;;;131.38;117.30;;;8.90;99.90;;;;;;5095359;28;20130;-81
2022/01/29 05:29:09;;;;;;;134.63;120.47;;;9.00;99.90;;;;;;5095505;28;20367;-81
2022/01/29 05:31:36;;;;;;;134.23;120.18;;;8.90;99.90;;;;;;5095110;28;20083;-81
2022/01/29 05:34:04;;;;;;;131.38;117.47;;;9.00;99.90;;;;;;5078038;28;20045;-81
2022/01/29 05:36:31;;;;;;;132.95;119.13;;;9.00;99.90;;;;;;5077940;28;20136;-81
2022/01/29 05:38:59;;;;;;;;;;;9.00;99.90;;;;;;5095332;28;20144;-82
2022/01/29 05:41:28;;;;;;;132.63;118.18;;;9.00;99.90;;;;;;5095447;28;19924;-81
2022/01/29 05:43:55;;;;;;;131.05;117.20;;;9.00;99.90;;;;;;5094881;28;20041;-81
2022/01/29 05:46:22;;;;;;;136.05;121.65;;;9.00;99.90;;;;;;5078002;28;20053;-82
2022/01/29 05:48:49;;;;;;;;;;;9.10;99.90;;;;;;5078560;28;20135;-82
2022/01/29 05:51:16;;;;;;;131.20;117.05;;;9.10;99.90;;;;;;5112310;28;19924;-81
2022/01/29 05:53:43;;;;;;;132.35;118.28;;;9.10;99.90;;;;;;5094721;28;20132;-82
2022/01/29 05:56:11;;;;;;;;;;;9.10;99.90;;;;;;5095124;28;20059;-81
2022/01/29 05:58:38;;;;;;;131.07;117.45;;;9.10;99.90;;;;;;5094828;28;19924;-81
2022/01/29 06:01:05;;;;;;;;;;;9.10;99.90;;;;;;5078212;28;20059;-82
2022/01/29 06:03:32;;;;;;;128.13;114.40;;;9.10;99.90;;;;;;5112380;28;19928;-81
2022/01/29 06:05:59;;;;;;;;;;;9.10;99.90;;;;;;5095051;28;20052;-81
2022/01/29 06:08:26;;;;;;;128.43;114.90;;;9.10;99.90;;;;;;5129331;27;19974;-81
2022/01/29 06:10:53;;;;;;;128.30;115.25;;;9.10;99.90;;;;;;5094245;28;20060;-81
2022/01/29 06:13:22;;;;;;;128.43;114.78;;;9.10;99.90;;;;;;5094422;28;20170;-82
2022/01/29 06:15:50;;;;;;;126.38;113.38;;;9.10;99.90;;;;;;5077373;28;20054;-82
2022/01/29 06:18:20;;;;;;;125.85;112.90;;;9.20;99.90;;;;;;5077306;28;20056;-82
2022/01/29 06:20:48;;;;;;;128.63;115.45;;;9.10;99.90;;;;;;5094388;28;20057;-82
2022/01/29 06:23:17;;;;;;;127.55;115.00;;;9.20;99.90;;;;;;5077422;28;20800;-82
2022/01/29 06:25:45;;;;;;;124.97;112.13;;;9.20;99.90;;;;;;5077242;28;20048;-81
2022/01/29 06:28:12;;;;;;;124.00;111.10;;;9.20;99.90;;;;;;5094136;28;20053;-81
2022/01/29 06:30:40;;;;;;;127.95;114.40;;;9.20;99.90;;;;;;5094302;28;20063;-81
2022/01/29 06:33:09;;;;;;;124.60;111.65;;;9.20;99.90;;;;;;5094197;28;20087;-81
2022/01/29 06:35:37;;;;;;;121.65;109.35;;;9.20;99.90;;;;;;5094445;28;20053;-81
2022/01/29 06:38:04;;;;;;;122.70;110.20;;;9.30;99.90;;;;;;5093797;28;20059;-81
2022/01/29 06:40:31;;;;;;;126.57;113.47;;;9.30;99.90;;;;;;5077441;28;20056;-81
2022/01/29 06:42:58;;;;;;;122.57;110.10;;;9.30;99.90;;;;;;5076952;28;20059;-81
2022/01/29 06:45:25;;;;;;;;;;;9.30;99.90;;;;;;5094564;28;20056;-81
2022/01/29 06:47:54;;;;;;;122.03;109.18;;;9.40;99.90;;;;;;5094230;28;19924;-81
2022/01/29 06:50:21;;;;;;;122.28;109.82;;;9.40;99.90;;;;;;5093912;28;20091;-81
2022/01/29 06:52:51;;;;;;;122.93;110.50;;;9.40;99.90;;;;;;5093218;28;20036;-81
2022/01/29 06:55:18;;;;;;;124.60;112.22;;;9.40;99.90;;;;;;5093772;28;20510;-81
2022/01/29 06:57:45;;;;;;;;;;;9.50;99.90;;;;;;5076726;28;20136;-82
2022/01/29 07:00:13;;;;;;;122.28;109.43;;;9.50;99.90;;;;;;5094084;28;19932;-81
2022/01/29 07:02:40;;;;;;;122.10;109.82;;;9.50;99.90;;;;;;5093627;28;20151;-81
2022/01/29 07:05:11;;;;;;;123.32;110.68;;;9.50;99.90;;;;;;5110716;28;20151;-81
2022/01/29 07:07:39;;;;;;;121.47;109.22;;;9.50;99.90;;;;;;5093406;28;20086;-81
2022/01/29 07:10:08;;;;;;;121.68;109.25;;;9.50;99.90;;;;;;5093288;28;20481;-81
2022/01/29 07:12:38;;;;;;;123.80;111.35;;;9.50;99.90;;;;;;5093325;28;20047;-81
2022/01/29 07:15:06;;;;;;;127.75;115.15;;;9.60;99.90;;;;;;5076449;28;20135;-81
2022/01/29 07:17:33;;;;;;;126.20;113.68;;;9.60;99.90;;;;;;5092979;28;20052;-81
2022/01/29 07:20:00;;;;;;;126.13;113.32;;;9.60;99.90;;;;;;5076232;28;20135;-81
2022/01/29 07:22:29;;;;;;;124.32;111.70;;;9.70;99.90;;;;;;5092857;28;20132;-81
2022/01/29 07:24:56;;;;;;;125.32;112.82;;;9.70;99.90;;;;;;5093380;28;20142;-81
2022/01/29 07:27:23;;;;;;;125.40;112.65;;;9.70;99.90;;;;;;5076484;28;20122;-81
2022/01/29 07:29:51;;;;;;;124.35;112.05;;;9.70;99.90;;;;;;5076240;28;20965;-81
2022/01/29 07:32:18;;;;;;;124.68;111.90;;;9.70;99.90;;;;;;5092949;28;20492;-81
2022/01/29 07:34:45;;;;;;;126.43;113.60;;;9.70;99.90;;;;;;5076074;28;20162;-82
2022/01/29 07:37:12;;;;;;;;;;;9.60;99.90;;;;;;5093404;28;20677;-81
2022/01/29 07:39:40;;;;;;;126.47;114.00;;;9.60;99.90;;;;;;5110580;28;19925;-81
2022/01/29 07:42:08;;;;;;;127.95;115.05;;;9.70;99.90;;;;;;5092763;28;20047;-81
2022/01/29 07:44:36;;;;;;;128.10;115.47;;;9.60;99.90;;;;;;5075815;28;20059;-82
2022/01/29 07:47:03;;;;;;;129.20;116.63;;;9.60;99.90;;;;;;5092725;28;20494;-81
2022/01/29 07:49:30;;;;;;;128.10;115.18;;;9.60;99.90;;;;;;5092898;28;20567;-82
2022/01/29 07:51:57;;;;;;;128.60;115.88;;;9.60;99.90;;;;;;5092852;28;20577;-82
2022/01/29 07:54:24;;;;;;;126.00;113.50;;;9.60;99.90;;;;;;5092723;28;20060;-81
2022/01/29 07:56:52;;;;;;;129.00;116.45;;;9.60;99.90;;;;;;5092860;28;20569;-81
2022/01/29 07:59:19;;;;;;;128.07;115.28;;;9.60;99.90;;;;;;5075768;28;20052;-81
2022/01/29 08:01:46;;;;;;;125.65;113.35;;;9.70;99.90;;;;;;5094055;28;20052;-81
2022/01/29 08:04:13;;;;;;;;;;;9.70;99.90;;;;;;5076123;28;20635;-81
2022/01/29 08:06:40;;;;;;;125.95;113.43;;;9.60;99.90;;;;;;5110033;28;20015;-81
2022/01/29 08:09:08;;;;;;;;;;;9.60;99.90;;;;;;5093087;28;20056;-82
2022/01/29 08:11:35;;;;;;;125.72;113.13;;;9.60;99.90;;;;;;5110150;28;19935;-82
2022/01/29 08:14:04;;;;;;;125.75;113.55;;;9.60;99.90;;;;;;5075491;28;20045;-81
2022/01/29 08:16:31;;;;;;;125.07;112.60;;;9.60;99.90;;;;;;5092522;28;20560;-81
2022/01/29 08:18:58;;;;;;;124.60;112.25;;;9.70;99.90;;;;;;5075673;28;20140;-81
2022/01/29 08:21:25;;;;;;;124.68;112.35;;;9.70;99.90;;;;;;5075668;28;20132;-82
2022/01/29 08:23:52;;;;;;;126.35;114.25;;;9.70;99.90;;;;;;5092539;28;20053;-82
2022/01/29 08:26:19;;;;;;;118.72;106.68;;;9.70;99.90;;;;;;5075486;28;20055;-82
2022/01/29 08:28:47;;;;;;;121.57;109.47;;;9.80;99.90;;;;;;5075568;28;20045;-81
2022/01/29 08:31:15;;;;;;;121.10;109.10;;;9.80;99.90;;;;;;5075492;28;20044;-81
2022/01/29 08:33:42;;;;;;;119.05;107.15;;;9.80;99.90;;;;;;5092375;28;20092;-82
2022/01/29 08:36:09;;;;;;;120.82;109.03;;;9.80;99.90;;;;;;5095517;28;20076;-81
2022/01/29 08:38:36;;;;;;;123.60;111.03;;;9.80;99.90;;;;;;5095530;28;20461;-81
2022/01/29 08:41:04;;;;;;;120.43;108.50;;;9.90;99.90;;;;;;5079065;28;20052;-81
2022/01/29 08:43:32;;;;;;;120.18;108.55;;;9.90;99.90;;;;;;5095881;28;20052;-81
2022/01/29 08:46:00;;;;;;;120.05;108.75;;;9.90;99.90;;;;;;5079072;28;20118;-81
2022/01/29 08:48:28;;;;;;;119.75;108.40;;;9.90;99.90;;;;;;5095565;28;20052;-81
2022/01/29 08:50:56;;;;;;;117.78;106.30;;;9.90;99.90;;;;;;5078239;28;20075;-82
2022/01/29 08:53:23;;;;;;;118.38;106.25;;;9.90;99.90;;;;;;5113405;28;20797;-81
2022/01/29 08:55:50;;;;;;;117.07;105.53;;;10.00;99.90;;;;;;5097503;28;20769;-81
2022/01/29 08:58:17;;;;;;;116.72;105.22;;;10.00;99.90;;;;;;5105207;28;20176;-81
2022/01/29 09:01:10;;;;;;;119.22;107.57;;;10.00;99.90;;;;;;5095014;28;20040;-81
2022/01/29 09:03:39;;;;;;;118.97;107.47;;;10.00;99.90;;;;;;5094846;28;20048;-81
2022/01/29 09:06:06;;;;;;;120.20;108.35;;;10.00;99.90;;;;;;5078031;28;20059;-81
2022/01/29 09:08:34;;;;;;;119.03;107.43;;;10.10;99.90;;;;;;5077788;28;20815;-83
2022/01/29 09:11:01;;;;;;;122.80;111.22;;;10.10;99.90;;;;;;5094206;28;20043;-80
2022/01/29 09:13:29;;;;;;;122.38;110.75;;;10.10;99.90;;;;;;5046137;28;20044;-81
2022/01/29 09:15:57;;;;;;;121.25;109.80;;;10.10;99.90;;;;;;5094530;28;20061;-81
2022/01/29 09:18:25;;;;;;;120.50;108.88;;;10.10;99.90;;;;;;5077770;28;20135;-81
2022/01/29 09:20:53;;;;;;;119.10;107.55;;;10.10;99.90;;;;;;5095107;28;20040;-80
2022/01/29 09:23:20;;;;;;;121.43;109.82;;;10.10;99.90;;;;;;5078157;28;20048;-81
2022/01/29 09:25:47;;;;;;;116.10;104.65;;;10.10;99.90;;;;;;5075012;28;20434;-81
2022/01/29 09:28:15;;;;;;;121.00;109.38;;;10.10;99.90;;;;;;5077835;28;20121;-80
2022/01/29 09:30:44;;;;;;;120.55;108.47;;;10.10;99.90;;;;;;5095138;28;20053;-81
2022/01/29 09:33:11;;;;;;;120.65;108.97;;;10.20;99.90;;;;;;5095146;28;20131;-81
2022/01/29 09:35:39;;;;;;;119.28;107.68;;;10.20;99.90;;;;;;5078138;28;20059;-81
2022/01/29 09:38:08;;;;;;;120.63;108.72;;;10.20;99.90;;;;;;5095018;28;20057;-80
2022/01/29 09:40:35;;;;;;;120.00;108.28;;;10.20;99.90;;;;;;5093360;28;20434;-81
2022/01/29 09:43:05;;;;;;;119.25;107.63;;;10.30;99.90;;;;;;5094628;28;20167;-81
2022/01/29 09:45:33;;;;;;;119.75;108.38;;;10.20;99.90;;;;;;5094556;28;20056;-81
2022/01/29 09:48:02;;;;;;;118.75;107.45;;;10.20;99.90;;;;;;5111923;28;20202;-80
2022/01/29 09:50:31;;;;;;;117.25;105.75;;;10.30;99.90;;;;;;5094820;28;20041;-82
2022/01/29 09:52:59;;;;;;;118.15;106.75;;;10.30;99.90;;;;;;5094408;28;20136;-82
2022/01/29 09:55:29;;;;;;;117.30;105.97;;;10.40;99.90;;;;;;5094711;28;20517;-81
2022/01/29 09:57:56;;;;;;;115.93;104.63;;;10.40;99.90;;;;;;5090980;28;20537;-80
2022/01/29 10:00:24;;;;;;;114.97;103.68;;;10.40;99.90;;;;;;5074313;28;20045;-81
2022/01/29 10:03:17;;;;;;;115.22;104.15;;;10.40;99.90;;;;;;5074165;28;20060;-81
2022/01/29 10:05:46;;;;;;;115.97;104.43;;;10.40;99.80;;;;;;5085978;28;20052;-81
2022/01/29 10:08:13;;;;;;;115.68;104.32;;;10.40;99.90;;;;;;5090984;28;20052;-80
2022/01/29 10:10:44;;;;;;;117.45;105.97;;;10.50;99.70;;;;;;5057664;28;20045;-80
2022/01/29 10:13:29;;;;;;;116.32;105.22;;;10.50;99.70;;;;;;5091314;28;20129;-80
2022/01/29 10:16:10;;;;;;;117.60;106.10;;;10.50;99.70;;;;;;5084706;28;20055;-81
2022/01/29 10:18:39;;;;;;;119.25;107.28;;;10.50;99.70;;;;;;5107819;28;20142;-80
2022/01/29 10:21:15;;;;;;;114.30;102.97;;;10.50;99.70;;;;;;5098963;28;20063;-80
2022/01/29 10:23:44;;;;;;;115.35;104.03;;;10.50;99.60;;;;;;5097596;28;20048;-81
2022/01/29 10:26:26;;;;;;;114.68;103.63;;;10.50;99.70;;;;;;5104350;28;20049;-84
2022/01/29 10:28:54;;;;;;;114.63;103.35;;;10.60;99.60;;;;;;5084621;28;20058;-80
2022/01/29 10:31:22;;;;;;;113.65;102.38;;;10.60;99.60;;;;;;5093362;28;20123;-80
2022/01/29 10:33:49;;;;;;;113.25;101.95;;;10.60;99.60;;;;;;5093624;28;20052;-80
2022/01/29 10:36:19;;;;;;;116.03;104.60;;;10.60;99.50;;;;;;5094471;28;20485;-80
2022/01/29 10:38:50;;;;;;;113.35;101.53;;;10.60;99.50;;;;;;5075969;28;20503;-80
2022/01/29 10:41:25;;;;;;;115.47;104.22;;;10.60;99.50;;;;;;5095228;28;20060;-80
2022/01/29 10:43:57;;;;;;;111.88;100.97;;;10.70;99.40;;;;;;5091690;28;20521;-80
2022/01/29 10:46:26;;;;;;;113.45;102.15;;;10.70;99.40;;;;;;5093364;28;20506;-80
2022/01/29 10:48:53;;;;;;;113.75;102.60;;;10.70;99.30;;;;;;5092804;28;20049;-80
2022/01/29 10:51:21;;;;;;;114.70;103.40;;;10.70;99.30;;;;;;5093289;28;20048;-81
2022/01/29 10:53:48;;;;;;;110.75;100.03;;;10.70;99.10;;;;;;5096089;28;20062;-82
2022/01/29 10:56:15;;;;;;;112.22;101.05;;;10.80;99.10;;;;;;5114447;28;20426;-81
2022/01/29 10:58:50;;;;;;;111.65;100.55;;;10.80;99.20;;;;;;5092583;28;20049;-81
2022/01/29 11:01:19;;;;;;;114.88;103.35;;;10.80;99.10;;;;;;5118831;27;20053;-80
2022/01/29 11:03:46;;;;;;;112.53;101.53;;;10.80;99.00;;;;;;5072908;28;20052;-80
2022/01/29 11:06:18;;;;;;;111.85;100.85;;;10.80;99.00;;;;;;5099517;28;20052;-80
2022/01/29 11:08:45;;;;;;;114.55;103.28;;;10.80;98.90;;;;;;5113789;28;20056;-80
2022/01/29 11:11:13;;;;;;;115.68;104.32;;;10.90;98.90;;;;;;5014256;27;20098;-80
2022/01/29 11:13:43;;;;;;;114.72;103.15;;;10.80;99.00;;;;;;5072726;28;20059;-81
2022/01/29 11:16:13;;;;;;;114.90;103.65;;;10.90;98.90;;;;;;5073083;28;20102;-81
2022/01/29 11:18:40;;;;;;;114.88;103.63;;;10.90;98.80;;;;;;5074544;28;20091;-81
2022/01/29 11:21:08;;;;;;;113.13;101.95;;;10.90;98.90;;;;;;5105890;28;20102;-80
2022/01/29 11:23:35;;;;;;;116.22;104.82;;;10.90;98.80;;;;;;5111660;27;20048;-82
2022/01/29 11:27:05;;;;;;;114.15;103.07;;;10.80;98.90;;;;;;5090130;28;20053;-79
2022/01/29 11:29:35;;;;;;;116.85;105.50;;;10.80;98.70;;;;;;5084960;28;20068;-83
2022/01/29 11:32:38;;;;;;;118.68;107.18;;;10.90;98.70;;;;;;5094132;28;20057;-82
2022/01/29 11:35:11;;;;;;;118.25;106.95;;;10.80;98.70;;;;;;5070450;28;20111;-81
2022/01/29 11:37:48;;;;;;;118.50;106.80;;;10.90;98.70;;;;;;5060139;28;20179;-82
2022/01/29 11:40:23;;;;;;;114.88;103.57;;;10.80;98.80;;;;;;5099943;28;20057;-83
2022/01/29 11:43:25;;;;;;;116.45;105.15;;;10.90;98.70;;;;;;5077532;28;20059;-82
2022/01/29 11:45:57;;;;;;;115.50;104.30;;;10.80;98.70;;;;;;5106583;28;20138;-82
2022/01/29 11:48:52;;;;;;;112.68;101.43;;;10.80;98.80;;;;;;5092130;28;20505;-84
2022/01/29 11:51:46;;;;;;;111.77;100.67;;;10.80;98.70;;;;;;5082610;28;20139;-83
2022/01/29 11:54:22;;;;;;;112.28;101.20;;;10.80;98.70;;;;;;5083218;28;20573;-85
2022/01/29 11:57:05;;;;;;;114.00;102.57;;;10.80;98.60;;;;;;5082487;28;20048;-83
2022/01/29 11:59:34;;;;;;;113.80;102.63;;;10.90;98.70;;;;;;5082613;28;20985;-82
2022/01/29 12:02:26;;;;;;;114.20;102.60;;;10.90;98.80;;;;;;5081607;28;20048;-82
2022/01/29 12:05:07;;;;;;;113.72;102.60;;;10.80;98.70;;;;;;5084705;28;20045;-83
2022/01/29 12:07:40;;;;;;;113.70;102.40;;;10.80;98.70;;;;;;5099429;28;20063;-82
2022/01/29 12:10:10;;;;;;;114.80;103.45;;;10.80;98.80;;;;;;5102884;27;20129;-79
2022/01/29 12:12:38;;;;;;;112.75;101.35;;;10.90;98.70;;;;;;5115697;28;20082;-84
2022/01/29 12:15:37;;;;;;;110.47;99.60;;;10.90;98.70;;;;;;5116767;28;20170;-82
2022/01/29 12:18:28;;;;;;;112.07;101.28;;;10.90;98.60;;;;;;5099893;28;20053;-81
2022/01/29 12:20:55;;;;;;;111.72;100.70;;;11.00;98.60;;;;;;5076037;28;20127;-84
2022/01/29 12:27:50;;;;;;;111.82;100.85;;;11.00;98.60;;;;;;5076904;28;20065;-84
2022/01/29 12:30:20;;;;;;;112.88;101.63;;;11.00;98.60;;;;;;5075908;28;20142;-82
2022/01/29 12:33:02;;;;;;;112.60;101.70;;;11.00;98.60;;;;;;5075847;28;20079;-84
2022/01/29 12:35:37;;;;;;;110.72;99.45;;;11.10;98.40;;;;;;5075693;28;20080;-82
2022/01/29 12:38:05;;;;;;;112.20;101.40;;;11.00;98.50;;;;;;5073805;28;20593;-83
2022/01/29 12:40:37;;;;;;;112.30;101.35;;;11.10;98.40;;;;;;5096921;28;20048;-80
2022/01/29 12:43:11;;;;;;;112.05;100.93;;;11.10;98.40;;;;;;5115779;27;20057;-81
2022/01/29 12:45:39;;;;;;;115.00;103.57;;;11.20;98.40;;;;;;5092018;28;20059;-79
2022/01/29 12:48:08;;;;;;;111.78;100.65;;;11.20;98.20;;;;;;5115923;28;20052;-80
2022/01/29 12:50:38;;;;;;;112.07;101.00;;;11.20;98.20;;;;;;5116259;28;20054;-79
2022/01/29 12:53:07;;;;;;;111.70;100.60;;;11.30;98.20;;;;;;5098689;28;20098;-79
2022/01/29 12:55:35;;;;;;;111.88;100.63;;;11.20;98.20;;;;;;5116194;28;20114;-78
2022/01/29 12:58:02;;;;;;;111.65;100.65;;;11.30;98.20;;;;;;5092821;28;20048;-80